Terminal Aerodrome Forecast
Issued by NWS

Home | Current Version | Previous Version | Text Only | Print | Product List | Glossary On
Versions: 1 2 3 4 5 6 7 8 9 10 11 12 13 14 15
000
FTUS45 KFGZ 042337
TAFSEZ
TAF
KSEZ 042337Z 0500/0524 14011G16KT P6SM VCTS BKN060CB BKN150
      TEMPO 0500/0502 VRB15G25KT 6SM -TSRA BKN030CB
     FM050300 VRB05KT P6SM SCT060 SCT140
     FM051800 20011KT P6SM SCT070
      AMD NOT SKED=

USA.gov is the U.S. government's official web portal to all federal, state and local government web resources and services.